sensor_id;sensor_type;location;lat;lon;timestamp;pressure;altitude;pressure_sealevel;temperature;humidity
75505;BME280;64085;54.974;73.410;2022-10-04T16:54:00;101510.56;;;9.60;36.20
75505;BME280;64085;54.974;73.410;2022-10-04T17:02:57;101535.94;;;9.71;35.93
75505;BME280;64085;54.974;73.410;2022-10-04T17:05:33;101533.97;;;9.71;36.67
75505;BME280;64085;54.974;73.410;2022-10-04T17:08:38;101540.69;;;9.79;36.24
75505;BME280;64085;54.974;73.410;2022-10-04T17:13:52;101543.28;;;9.75;36.75
75505;BME280;64085;54.974;73.410;2022-10-04T17:16:35;101526.34;;;9.68;36.25
75505;BME280;64085;54.974;73.410;2022-10-04T17:30:14;101528.97;;;9.82;36.45
75505;BME280;64085;54.974;73.410;2022-10-04T17:38:11;101525.56;;;9.76;36.65
75505;BME280;64085;54.974;73.410;2022-10-04T17:49:22;101519.53;;;9.74;37.37
75505;BME280;64085;54.974;73.410;2022-10-04T17:52:16;101528.34;;;9.76;37.27
75505;BME280;64085;54.974;73.410;2022-10-04T17:55:18;101519.19;;;9.67;37.64
75505;BME280;64085;54.974;73.410;2022-10-04T18:00:22;101498.75;;;9.68;37.48
75505;BME280;64085;54.974;73.410;2022-10-04T18:11:05;101509.50;;;9.78;37.20
75505;BME280;64085;54.974;73.410;2022-10-04T18:13:47;101495.66;;;9.70;37.32
75505;BME280;64085;54.974;73.410;2022-10-04T18:18:44;101513.19;;;9.74;36.95
75505;BME280;64085;54.974;73.410;2022-10-04T18:23:51;101514.16;;;9.69;36.87
75505;BME280;64085;54.974;73.410;2022-10-04T18:26:18;101507.81;;;9.60;37.01
75505;BME280;64085;54.974;73.410;2022-10-04T18:28:45;101486.97;;;9.54;36.58
75505;BME280;64085;54.974;73.410;2022-10-04T18:34:28;101511.09;;;9.71;36.74
75505;BME280;64085;54.974;73.410;2022-10-04T18:37:15;101512.53;;;9.68;37.07
75505;BME280;64085;54.974;73.410;2022-10-04T18:39:46;101510.63;;;9.77;36.55
75505;BME280;64085;54.974;73.410;2022-10-04T18:42:27;101511.13;;;9.79;36.56
75505;BME280;64085;54.974;73.410;2022-10-04T18:45:08;101485.38;;;9.62;37.28
75505;BME280;64085;54.974;73.410;2022-10-04T18:47:44;101463.25;;;9.44;37.03
75505;BME280;64085;54.974;73.410;2022-10-04T18:50:16;101510.94;;;9.76;36.24
75505;BME280;64085;54.974;73.410;2022-10-04T18:52:54;101519.25;;;9.76;36.75
75505;BME280;64085;54.974;73.410;2022-10-04T18:58:23;101523.94;;;9.75;36.84
75505;BME280;64085;54.974;73.410;2022-10-04T19:01:24;101517.28;;;9.76;37.10
75505;BME280;64085;54.974;73.410;2022-10-04T19:04:18;101519.53;;;9.74;37.32
75505;BME280;64085;54.974;73.410;2022-10-04T19:06:51;101506.69;;;9.70;36.71
75505;BME280;64085;54.974;73.410;2022-10-04T19:12:06;101506.34;;;9.63;36.40
75505;BME280;64085;54.974;73.410;2022-10-04T19:14:53;101512.03;;;9.66;36.53
75505;BME280;64085;54.974;73.410;2022-10-04T19:28:01;101486.88;;;9.68;36.33
75505;BME280;64085;54.974;73.410;2022-10-04T19:36:11;101510.63;;;9.77;36.72
75505;BME280;64085;54.974;73.410;2022-10-04T19:38:45;101510.75;;;9.72;36.67
75505;BME280;64085;54.974;73.410;2022-10-04T19:52:22;101510.72;;;9.64;37.10
75505;BME280;64085;54.974;73.410;2022-10-04T19:55:00;101457.91;;;9.17;37.17
75505;BME280;64085;54.974;73.410;2022-10-04T19:57:37;101450.38;;;9.00;37.54
75505;BME280;64085;54.974;73.410;2022-10-04T20:00:13;101472.28;;;9.05;38.18
75505;BME280;64085;54.974;73.410;2022-10-04T20:02:42;101505.09;;;9.15;38.10
75505;BME280;64085;54.974;73.410;2022-10-04T20:05:13;101496.50;;;9.08;38.29
75505;BME280;64085;54.974;73.410;2022-10-04T20:07:40;101501.94;;;8.99;38.06
75505;BME280;64085;54.974;73.410;2022-10-04T20:13:19;101508.03;;;9.10;38.66
75505;BME280;64085;54.974;73.410;2022-10-04T20:15:48;101510.34;;;9.17;38.59
75505;BME280;64085;54.974;73.410;2022-10-04T20:26:40;101507.81;;;9.29;38.53
75505;BME280;64085;54.974;73.410;2022-10-04T20:32:06;101527.56;;;9.22;38.71
75505;BME280;64085;54.974;73.410;2022-10-04T20:34:54;101525.00;;;9.26;38.76
75505;BME280;64085;54.974;73.410;2022-10-04T20:37:20;101531.66;;;9.25;37.85
75505;BME280;64085;54.974;73.410;2022-10-04T20:42:33;101527.38;;;9.19;38.19
75505;BME280;64085;54.974;73.410;2022-10-04T20:47:45;101528.19;;;9.19;38.41
75505;BME280;64085;54.974;73.410;2022-10-04T20:50:13;101525.00;;;9.26;38.18
75505;BME280;64085;54.974;73.410;2022-10-04T20:52:46;101508.63;;;9.07;38.70
75505;BME280;64085;54.974;73.410;2022-10-04T20:55:23;101521.06;;;9.18;38.28
75505;BME280;64085;54.974;73.410;2022-10-04T20:57:59;101470.06;;;8.85;38.79
75505;BME280;64085;54.974;73.410;2022-10-04T21:00:27;101423.13;;;8.54;39.06
75505;BME280;64085;54.974;73.410;2022-10-04T21:03:16;101522.63;;;9.11;38.68
75505;BME280;64085;54.974;73.410;2022-10-04T21:05:43;101509.44;;;9.08;38.37
75505;BME280;64085;54.974;73.410;2022-10-04T21:08:15;101499.41;;;9.12;38.63
75505;BME280;64085;54.974;73.410;2022-10-04T21:11:11;101511.28;;;9.12;38.97
75505;BME280;64085;54.974;73.410;2022-10-04T21:13:52;101510.63;;;9.15;38.86
75505;BME280;64085;54.974;73.410;2022-10-04T21:16:54;101524.56;;;9.10;38.59
75505;BME280;64085;54.974;73.410;2022-10-04T21:22:04;101522.47;;;9.16;38.86
75505;BME280;64085;54.974;73.410;2022-10-04T21:24:37;101523.00;;;9.18;39.55
75505;BME280;64085;54.974;73.410;2022-10-04T21:27:08;101528.19;;;9.19;39.51
75505;BME280;64085;54.974;73.410;2022-10-04T21:29:35;101525.06;;;9.12;39.41
75505;BME280;64085;54.974;73.410;2022-10-04T21:32:02;101510.88;;;8.83;39.39
75505;BME280;64085;54.974;73.410;2022-10-04T21:34:28;101497.53;;;8.54;40.63
75505;BME280;64085;54.974;73.410;2022-10-04T21:36:54;101510.44;;;8.44;40.22
75505;BME280;64085;54.974;73.410;2022-10-04T21:39:19;101526.00;;;8.49;40.98
75505;BME280;64085;54.974;73.410;2022-10-04T21:41:45;101475.78;;;8.16;40.74
75505;BME280;64085;54.974;73.410;2022-10-04T21:44:11;101527.75;;;8.59;40.12
75505;BME280;64085;54.974;73.410;2022-10-04T21:46:37;101514.63;;;8.64;41.27
75505;BME280;64085;54.974;73.410;2022-10-04T21:49:03;101522.16;;;8.72;41.24
75505;BME280;64085;54.974;73.410;2022-10-04T21:51:29;101516.34;;;8.74;40.99
75505;BME280;64085;54.974;73.410;2022-10-04T21:54:04;101524.19;;;8.81;40.65
75505;BME280;64085;54.974;73.410;2022-10-04T21:56:30;101523.75;;;8.87;39.98
75505;BME280;64085;54.974;73.410;2022-10-04T21:58:57;101533.16;;;8.86;40.39
75505;BME280;64085;54.974;73.410;2022-10-04T22:01:23;101465.78;;;8.56;40.99
75505;BME280;64085;54.974;73.410;2022-10-04T22:03:48;101446.72;;;8.46;40.53
75505;BME280;64085;54.974;73.410;2022-10-04T22:06:14;101522.31;;;8.90;40.27
75505;BME280;64085;54.974;73.410;2022-10-04T22:08:40;101457.22;;;8.58;40.21
75505;BME280;64085;54.974;73.410;2022-10-04T22:11:07;101520.13;;;9.00;40.21
75505;BME280;64085;54.974;73.410;2022-10-04T22:13:33;101523.06;;;9.04;40.24
75505;BME280;64085;54.974;73.410;2022-10-04T22:15:59;101502.25;;;8.98;40.52
75505;BME280;64085;54.974;73.410;2022-10-04T22:18:27;101462.84;;;8.75;40.46
75505;BME280;64085;54.974;73.410;2022-10-04T22:20:53;101505.69;;;9.03;40.58
75505;BME280;64085;54.974;73.410;2022-10-04T22:23:21;101473.13;;;8.83;40.73
75505;BME280;64085;54.974;73.410;2022-10-04T22:25:47;101518.56;;;9.08;41.44
75505;BME280;64085;54.974;73.410;2022-10-04T22:28:27;101517.72;;;9.08;40.25
75505;BME280;64085;54.974;73.410;2022-10-04T22:30:53;101458.19;;;8.62;40.62
75505;BME280;64085;54.974;73.410;2022-10-04T22:35:55;101460.31;;;8.65;40.84
75505;BME280;64085;54.974;73.410;2022-10-04T22:38:21;101505.91;;;8.85;41.26
75505;BME280;64085;54.974;73.410;2022-10-04T22:40:46;101510.66;;;8.93;40.31
75505;BME280;64085;54.974;73.410;2022-10-04T22:43:13;101520.63;;;8.80;40.89
75505;BME280;64085;54.974;73.410;2022-10-04T22:45:41;101521.69;;;8.93;41.18
75505;BME280;64085;54.974;73.410;2022-10-04T22:48:12;101526.56;;;8.96;41.04
75505;BME280;64085;54.974;73.410;2022-10-04T22:50:40;101512.91;;;8.91;41.62
75505;BME280;64085;54.974;73.410;2022-10-04T22:53:20;101519.16;;;8.83;41.92
75505;BME280;64085;54.974;73.410;2022-10-04T22:55:49;101530.34;;;9.00;41.73
75505;BME280;64085;54.974;73.410;2022-10-04T22:58:15;101535.53;;;9.01;41.56
75505;BME280;64085;54.974;73.410;2022-10-04T23:00:43;101531.97;;;9.01;41.78
75505;BME280;64085;54.974;73.410;2022-10-04T23:03:28;101540.53;;;8.99;41.46
75505;BME280;64085;54.974;73.410;2022-10-04T23:05:59;101538.78;;;9.03;41.99
75505;BME280;64085;54.974;73.410;2022-10-04T23:08:26;101522.13;;;8.86;41.22
75505;BME280;64085;54.974;73.410;2022-10-04T23:10:56;101465.22;;;8.45;41.94
75505;BME280;64085;54.974;73.410;2022-10-04T23:13:23;101547.81;;;8.95;41.28
75505;BME280;64085;54.974;73.410;2022-10-04T23:15:49;101544.25;;;8.95;41.19
75505;BME280;64085;54.974;73.410;2022-10-04T23:18:16;101513.09;;;8.72;42.05
75505;BME280;64085;54.974;73.410;2022-10-04T23:20:43;101558.34;;;8.93;41.53
75505;BME280;64085;54.974;73.410;2022-10-04T23:23:13;101560.31;;;8.93;41.54
75505;BME280;64085;54.974;73.410;2022-10-04T23:25:47;101555.41;;;8.90;42.08
75505;BME280;64085;54.974;73.410;2022-10-04T23:28:15;101552.94;;;8.88;42.23
75505;BME280;64085;54.974;73.410;2022-10-04T23:30:42;101551.75;;;8.81;42.65
75505;BME280;64085;54.974;73.410;2022-10-04T23:33:16;101546.72;;;8.83;42.73
75505;BME280;64085;54.974;73.410;2022-10-04T23:35:42;101560.66;;;8.78;42.68
75505;BME280;64085;54.974;73.410;2022-10-04T23:38:19;101556.13;;;8.82;42.64
75505;BME280;64085;54.974;73.410;2022-10-04T23:40:46;101543.72;;;8.70;41.64
75505;BME280;64085;54.974;73.410;2022-10-04T23:43:22;101520.81;;;8.48;42.25
75505;BME280;64085;54.974;73.410;2022-10-04T23:45:53;101559.84;;;8.77;42.77
75505;BME280;64085;54.974;73.410;2022-10-04T23:48:25;101510.94;;;8.46;42.05
75505;BME280;64085;54.974;73.410;2022-10-04T23:50:53;101552.72;;;8.76;41.84
75505;BME280;64085;54.974;73.410;2022-10-04T23:53:26;101549.56;;;8.69;42.16
75505;BME280;64085;54.974;73.410;2022-10-04T23:55:53;101544.50;;;8.49;42.97
75505;BME280;64085;54.974;73.410;2022-10-04T23:58:22;101497.28;;;8.14;42.64
